Time;durP1;ratioP1;P1;durP2;ratioP2;P2;SDS_P1;SDS_P2;PMS_P1;PMS_P2;Temp;Humidity;BMP_temperature;BMP_pressure;BME280_temperature;BME280_humidity;BME280_pressure;Samples;Min_cycle;Max_cycle;Signal;HPM_P1;HPM_P2
2022/02/23 00:02:04;;;;;;;14.10;2.53;;;;;;;;;;5016372;28;20458;-81
2022/02/23 00:04:31;;;;;;;17.37;3.23;;;;;;;;;;5015647;28;20580;-81
2022/02/23 00:06:58;;;;;;;23.03;3.10;;;;;;;;;;5014339;28;20482;-80
2022/02/23 00:09:27;;;;;;;14.60;3.20;;;;;;;;;;5010957;28;20459;-80
2022/02/23 00:11:54;;;;;;;8.70;3.07;;;;;;;;;;5012426;28;20547;-80
2022/02/23 00:14:21;;;;;;;12.13;3.00;;;;;;;;;;5016073;28;20483;-79
2022/02/23 00:16:48;;;;;;;8.57;2.43;;;;;;;;;;5015527;28;20454;-80
2022/02/23 00:19:15;;;;;;;10.40;3.10;;;;;;;;;;5016377;28;20529;-80
2022/02/23 00:21:42;;;;;;;11.53;3.57;;;;;;;;;;5017042;28;20508;-80
2022/02/23 00:24:09;;;;;;;9.83;3.00;;;;;;;;;;5015631;28;20477;-78
2022/02/23 00:26:38;;;;;;;12.60;3.23;;;;;;;;;;5016467;28;20484;-80
2022/02/23 00:29:05;;;;;;;16.20;2.80;;;;;;;;;;5016985;28;20461;-81
2022/02/23 00:31:32;;;;;;;18.13;3.50;;;;;;;;;;5017857;28;20457;-80
2022/02/23 00:33:59;;;;;;;10.60;3.60;;;;;;;;;;5013325;28;20485;-80
2022/02/23 00:36:27;;;;;;;11.07;4.30;;;;;;;;;;5011594;28;20467;-80
2022/02/23 00:38:54;;;;;;;11.53;2.70;;;;;;;;;;5016167;28;20455;-81
2022/02/23 00:41:22;;;;;;;12.60;3.53;;;;;;;;;;5016321;28;20461;-80
2022/02/23 00:43:50;;;;;;;14.80;3.50;;;;;;;;;;5015273;28;20455;-80
2022/02/23 00:46:17;;;;;;;8.60;3.83;;;;;;;;;;5016088;28;20489;-81
2022/02/23 00:48:45;;;;;;;9.53;2.90;;;;;;;;;;5016060;28;20872;-80
2022/02/23 00:51:12;;;;;;;12.23;3.37;;;;;;;;;;4996623;28;20488;-80
2022/02/23 00:53:39;;;;;;;9.87;2.60;;;;;;;;;;4999023;28;20484;-81
2022/02/23 00:56:06;;;;;;;11.20;3.20;;;;;;;;;;5015943;28;20449;-81
2022/02/23 00:58:34;;;;;;;9.83;2.60;;;;;;;;;;5020109;28;20523;-81
2022/02/23 01:01:02;;;;;;;12.57;4.10;;;;;;;;;;5020529;28;20954;-80
2022/02/23 01:03:29;;;;;;;13.30;3.20;;;;;;;;;;5020653;28;20457;-81
2022/02/23 01:05:56;;;;;;;15.43;2.63;;;;;;;;;;5012628;28;20488;-80
2022/02/23 01:08:23;;;;;;;11.63;3.90;;;;;;;;;;5019784;28;20456;-79
2022/02/23 01:10:50;;;;;;;9.63;2.70;;;;;;;;;;5019337;28;21020;-79
2022/02/23 01:13:18;;;;;;;15.30;4.07;;;;;;;;;;5000269;28;20953;-81
2022/02/23 01:15:45;;;;;;;14.20;3.20;;;;;;;;;;5016769;28;20457;-79
2022/02/23 01:18:14;;;;;;;8.23;2.50;;;;;;;;;;5020113;28;20456;-81
2022/02/23 01:20:41;;;;;;;10.60;2.60;;;;;;;;;;5020742;28;20471;-81
2022/02/23 01:23:08;;;;;;;16.27;4.10;;;;;;;;;;5020031;28;20453;-80
2022/02/23 01:25:35;;;;;;;5.23;2.73;;;;;;;;;;5019069;28;20479;-80
2022/02/23 01:28:04;;;;;;;15.73;3.23;;;;;;;;;;5020684;28;20483;-81
2022/02/23 01:30:32;;;;;;;9.33;2.30;;;;;;;;;;5018987;28;20465;-81
2022/02/23 01:32:59;;;;;;;8.90;2.80;;;;;;;;;;5019603;28;20542;-79
2022/02/23 01:35:28;;;;;;;9.30;2.17;;;;;;;;;;5019105;28;20574;-80
2022/02/23 01:37:55;;;;;;;13.50;3.20;;;;;;;;;;5020501;28;20535;-81
2022/02/23 01:40:23;;;;;;;14.70;3.07;;;;;;;;;;5020131;28;20485;-80
2022/02/23 01:42:50;;;;;;;9.67;2.97;;;;;;;;;;5019302;28;20550;-80
2022/02/23 01:45:18;;;;;;;16.27;3.43;;;;;;;;;;5018008;28;20496;-79
2022/02/23 01:47:45;;;;;;;8.60;2.47;;;;;;;;;;5018815;28;20937;-80
2022/02/23 01:50:12;;;;;;;10.93;2.10;;;;;;;;;;5019090;28;20466;-80
2022/02/23 01:52:40;;;;;;;14.00;2.73;;;;;;;;;;5019415;28;20436;-80
2022/02/23 01:55:08;;;;;;;11.67;4.13;;;;;;;;;;5011271;28;20487;-80
2022/02/23 01:57:35;;;;;;;8.63;2.77;;;;;;;;;;5019075;28;20458;-78
2022/02/23 02:00:02;;;;;;;7.13;2.53;;;;;;;;;;5018313;28;20964;-80
2022/02/23 02:02:30;;;;;;;15.47;2.60;;;;;;;;;;5019304;28;21036;-79
2022/02/23 02:04:57;;;;;;;8.20;1.90;;;;;;;;;;5017534;28;20487;-79
2022/02/23 02:07:24;;;;;;;17.40;3.63;;;;;;;;;;5017862;28;20484;-81
2022/02/23 02:09:52;;;;;;;11.40;2.10;;;;;;;;;;5018166;28;20555;-80
2022/02/23 02:12:19;;;;;;;8.10;2.73;;;;;;;;;;5015665;28;20500;-80
2022/02/23 02:14:47;;;;;;;9.10;2.37;;;;;;;;;;5048753;22;20499;-83
2022/02/23 02:17:14;;;;;;;8.73;2.20;;;;;;;;;;5034933;28;20449;-81
2022/02/23 02:19:41;;;;;;;9.90;3.30;;;;;;;;;;5032065;28;20459;-83
2022/02/23 02:22:10;;;;;;;8.63;2.67;;;;;;;;;;5036624;28;20449;-82
2022/02/23 02:24:38;;;;;;;12.40;2.60;;;;;;;;;;5031422;28;20472;-81
2022/02/23 02:27:08;;;;;;;14.97;2.90;;;;;;;;;;5016143;28;21016;-83
2022/02/23 02:29:35;;;;;;;9.90;2.27;;;;;;;;;;5017075;28;20447;-82
2022/02/23 02:32:03;;;;;;;13.80;2.77;;;;;;;;;;5016691;28;20460;-83
2022/02/23 02:34:30;;;;;;;12.57;2.97;;;;;;;;;;5016293;28;20520;-79
2022/02/23 02:36:58;;;;;;;14.00;3.50;;;;;;;;;;5015855;28;20907;-82
2022/02/23 02:39:27;;;;;;;10.90;2.83;;;;;;;;;;5011014;28;20487;-80
2022/02/23 02:41:54;;;;;;;14.00;2.23;;;;;;;;;;5016612;28;20456;-82
2022/02/23 02:44:21;;;;;;;9.20;3.33;;;;;;;;;;5015729;28;20486;-81
2022/02/23 02:46:48;;;;;;;11.10;3.00;;;;;;;;;;5016278;28;20510;-82
2022/02/23 02:49:16;;;;;;;17.90;3.10;;;;;;;;;;5023103;28;20462;-83
2022/02/23 02:51:43;;;;;;;12.90;2.67;;;;;;;;;;5018592;28;20452;-84
2022/02/23 02:54:10;;;;;;;10.03;2.63;;;;;;;;;;5024397;28;20440;-84
2022/02/23 02:56:40;;;;;;;13.73;2.50;;;;;;;;;;5037104;28;20443;-82
2022/02/23 02:59:07;;;;;;;10.80;2.60;;;;;;;;;;5016481;28;20446;-82
2022/02/23 03:01:35;;;;;;;11.53;2.80;;;;;;;;;;5016494;28;20466;-82
2022/02/23 03:04:02;;;;;;;9.73;2.30;;;;;;;;;;5018149;28;20524;-82
2022/02/23 03:06:29;;;;;;;15.57;3.80;;;;;;;;;;5016417;28;20527;-82
2022/02/23 03:08:57;;;;;;;9.27;2.70;;;;;;;;;;5016127;28;20472;-80
2022/02/23 03:11:24;;;;;;;8.50;2.70;;;;;;;;;;5016206;28;20554;-81
2022/02/23 03:13:53;;;;;;;12.47;2.60;;;;;;;;;;5014400;28;20455;-81
2022/02/23 03:16:21;;;;;;;10.57;2.90;;;;;;;;;;5015115;28;20482;-81
2022/02/23 03:18:49;;;;;;;9.07;2.80;;;;;;;;;;5024513;28;20978;-82
2022/02/23 03:21:16;;;;;;;9.60;2.90;;;;;;;;;;5029732;28;20517;-83
2022/02/23 03:23:43;;;;;;;11.23;3.00;;;;;;;;;;5019355;28;20456;-81
2022/02/23 03:26:10;;;;;;;12.07;2.77;;;;;;;;;;5019107;28;20467;-81
2022/02/23 03:28:38;;;;;;;7.70;2.43;;;;;;;;;;5018275;28;20459;-81
2022/02/23 03:31:07;;;;;;;10.07;2.73;;;;;;;;;;5017414;28;20546;-83
2022/02/23 03:33:34;;;;;;;9.73;2.27;;;;;;;;;;5015069;28;20458;-82
2022/02/23 03:36:02;;;;;;;8.53;2.30;;;;;;;;;;5015745;28;20556;-83
2022/02/23 03:38:29;;;;;;;11.37;3.50;;;;;;;;;;5015074;28;20457;-80
2022/02/23 03:40:58;;;;;;;11.33;2.50;;;;;;;;;;5014988;28;20541;-83
2022/02/23 03:43:25;;;;;;;8.90;3.10;;;;;;;;;;5014349;28;20458;-80
2022/02/23 03:45:52;;;;;;;5.60;2.00;;;;;;;;;;5014020;28;20478;-82
2022/02/23 03:48:21;;;;;;;10.00;2.37;;;;;;;;;;5014464;28;20490;-80
2022/02/23 03:50:48;;;;;;;8.90;2.30;;;;;;;;;;5014693;28;20462;-83
2022/02/23 03:53:15;;;;;;;12.50;2.70;;;;;;;;;;5013492;28;20997;-83
2022/02/23 03:55:42;;;;;;;17.17;3.17;;;;;;;;;;5014005;28;20493;-82
2022/02/23 03:58:09;;;;;;;16.33;2.93;;;;;;;;;;5014648;28;20454;-81
2022/02/23 04:00:37;;;;;;;13.10;3.70;;;;;;;;;;5014250;28;20442;-80
2022/02/23 04:03:04;;;;;;;8.27;2.73;;;;;;;;;;5013517;28;20477;-82
2022/02/23 04:05:33;;;;;;;8.07;2.70;;;;;;;;;;5013673;28;20850;-80
2022/02/23 04:08:00;;;;;;;7.77;2.80;;;;;;;;;;5013446;28;20487;-83
2022/02/23 04:10:27;;;;;;;9.97;3.03;;;;;;;;;;5013844;28;20464;-81
2022/02/23 04:12:54;;;;;;;17.00;3.07;;;;;;;;;;5012822;28;20450;-81
2022/02/23 04:15:21;;;;;;;8.10;3.10;;;;;;;;;;5014066;28;20490;-81
2022/02/23 04:17:48;;;;;;;9.57;2.83;;;;;;;;;;5015284;28;20461;-81
2022/02/23 04:20:15;;;;;;;12.97;3.03;;;;;;;;;;5015461;28;20455;-80
2022/02/23 04:22:45;;;;;;;6.07;2.37;;;;;;;;;;5014382;28;20456;-80
2022/02/23 04:25:12;;;;;;;13.67;3.10;;;;;;;;;;5013521;28;20493;-81
2022/02/23 04:27:39;;;;;;;18.93;4.83;;;;;;;;;;5014837;28;20518;-79
2022/02/23 04:30:08;;;;;;;11.30;3.93;;;;;;;;;;5014772;28;20538;-81
2022/02/23 04:32:36;;;;;;;8.47;2.10;;;;;;;;;;5014646;28;20463;-80
2022/02/23 04:35:03;;;;;;;8.30;2.80;;;;;;;;;;5013984;28;20479;-80
2022/02/23 04:37:30;;;;;;;8.13;2.93;;;;;;;;;;5003121;28;20903;-80
2022/02/23 04:40:00;;;;;;;8.93;3.73;;;;;;;;;;5015489;28;20889;-80
2022/02/23 04:42:28;;;;;;;9.57;3.33;;;;;;;;;;5015851;28;20503;-81
2022/02/23 04:45:00;;;;;;;11.93;3.60;;;;;;;;;;5024794;28;20479;-83
2022/02/23 04:47:27;;;;;;;8.70;2.57;;;;;;;;;;5016606;28;20847;-83
2022/02/23 04:49:54;;;;;;;8.63;3.17;;;;;;;;;;5025517;28;20454;-81
2022/02/23 04:52:24;;;;;;;16.87;3.17;;;;;;;;;;5018008;28;20450;-81
2022/02/23 04:54:51;;;;;;;10.63;2.90;;;;;;;;;;5016682;28;20548;-81
2022/02/23 04:57:19;;;;;;;10.00;2.90;;;;;;;;;;5016009;28;20970;-81
2022/02/23 04:59:46;;;;;;;9.43;3.73;;;;;;;;;;5017539;28;20453;-81
2022/02/23 05:02:13;;;;;;;6.37;2.80;;;;;;;;;;5017628;28;20457;-81
2022/02/23 05:04:40;;;;;;;10.03;3.33;;;;;;;;;;5021706;28;20575;-80
2022/02/23 05:07:08;;;;;;;6.50;2.70;;;;;;;;;;5020468;28;20486;-81
2022/02/23 05:09:37;;;;;;;10.30;3.17;;;;;;;;;;5017021;28;20863;-84
2022/02/23 05:12:05;;;;;;;10.33;3.37;;;;;;;;;;5008821;28;20458;-85
2022/02/23 05:14:33;;;;;;;7.03;2.63;;;;;;;;;;5018463;28;20523;-85
2022/02/23 05:17:00;;;;;;;7.53;3.03;;;;;;;;;;5015399;28;20458;-84
2022/02/23 05:19:29;;;;;;;17.27;6.00;;;;;;;;;;5014841;28;20469;-87
2022/02/23 05:21:56;;;;;;;11.07;3.60;;;;;;;;;;5016200;28;20549;-84
2022/02/23 05:24:23;;;;;;;5.60;2.77;;;;;;;;;;4995872;28;20446;-85
2022/02/23 05:26:50;;;;;;;10.90;3.30;;;;;;;;;;5011612;28;20494;-85
2022/02/23 05:29:18;;;;;;;12.57;3.07;;;;;;;;;;5016660;28;20458;-85
2022/02/23 05:31:46;;;;;;;8.33;2.67;;;;;;;;;;5017428;28;20461;-84
2022/02/23 05:34:13;;;;;;;9.17;3.50;;;;;;;;;;5015915;28;20460;-85
2022/02/23 05:36:40;;;;;;;14.13;4.10;;;;;;;;;;5016102;28;20535;-85
2022/02/23 05:39:07;;;;;;;10.57;4.97;;;;;;;;;;5019314;28;20453;-86
2022/02/23 05:41:35;;;;;;;24.00;7.00;;;;;;;;;;5021024;28;20527;-85
2022/02/23 05:44:02;;;;;;;18.73;7.20;;;;;;;;;;5020612;28;20454;-84
2022/02/23 05:46:29;;;;;;;24.10;7.60;;;;;;;;;;5023025;28;21019;-85
2022/02/23 05:48:58;;;;;;;20.03;6.47;;;;;;;;;;5015875;28;20486;-85
2022/02/23 05:51:25;;;;;;;9.47;4.80;;;;;;;;;;5014890;28;20901;-85
2022/02/23 05:53:52;;;;;;;13.03;5.00;;;;;;;;;;5022427;28;20481;-85
2022/02/23 05:56:19;;;;;;;16.23;4.97;;;;;;;;;;5022438;28;20481;-86
2022/02/23 05:58:47;;;;;;;9.37;4.87;;;;;;;;;;5023180;28;20832;-85
2022/02/23 06:01:14;;;;;;;13.80;4.20;;;;;;;;;;5022426;28;20450;-85
2022/02/23 06:03:41;;;;;;;8.40;3.77;;;;;;;;;;5022239;28;20540;-85
2022/02/23 06:06:10;;;;;;;9.83;3.67;;;;;;;;;;5021099;28;20850;-84
2022/02/23 06:08:37;;;;;;;12.43;4.37;;;;;;;;;;5021154;28;20922;-84
2022/02/23 06:11:04;;;;;;;19.57;4.80;;;;;;;;;;5020086;28;20512;-84
2022/02/23 06:13:32;;;;;;;12.70;4.43;;;;;;;;;;5020229;28;20457;-83
2022/02/23 06:15:59;;;;;;;9.47;3.80;;;;;;;;;;5020857;28;20485;-84
2022/02/23 06:18:26;;;;;;;7.13;3.63;;;;;;;;;;5020724;28;20446;-84
2022/02/23 06:20:55;;;;;;;9.33;4.10;;;;;;;;;;5020349;28;20540;-84
2022/02/23 06:23:24;;;;;;;7.67;3.80;;;;;;;;;;5019199;28;20476;-83
2022/02/23 06:25:51;;;;;;;12.50;4.73;;;;;;;;;;5020496;28;20856;-84
2022/02/23 06:28:18;;;;;;;10.27;4.90;;;;;;;;;;5020018;28;20497;-84
2022/02/23 06:30:45;;;;;;;14.40;5.50;;;;;;;;;;5020845;28;20456;-84
2022/02/23 06:33:13;;;;;;;14.07;4.00;;;;;;;;;;5019002;28;20484;-84
2022/02/23 06:35:40;;;;;;;9.77;4.43;;;;;;;;;;5020081;28;20476;-84
2022/02/23 06:38:07;;;;;;;13.37;6.13;;;;;;;;;;5020025;28;20465;-84
2022/02/23 06:40:36;;;;;;;13.00;4.97;;;;;;;;;;5007058;28;20459;-84
2022/02/23 06:43:03;;;;;;;22.40;5.30;;;;;;;;;;5000292;28;20493;-84
2022/02/23 06:45:30;;;;;;;13.70;3.83;;;;;;;;;;5003453;28;20561;-85
2022/02/23 06:47:57;;;;;;;13.43;4.43;;;;;;;;;;5020335;28;20492;-85
2022/02/23 06:50:24;;;;;;;11.13;4.53;;;;;;;;;;5018578;28;20458;-81
2022/02/23 06:52:52;;;;;;;12.33;4.60;;;;;;;;;;5018721;28;20521;-81
2022/02/23 06:55:19;;;;;;;20.93;5.73;;;;;;;;;;5017824;28;20875;-83
2022/02/23 06:57:48;;;;;;;11.77;5.43;;;;;;;;;;5018589;28;20498;-83
2022/02/23 07:00:15;;;;;;;12.60;4.90;;;;;;;;;;5018537;28;20462;-83
2022/02/23 07:02:42;;;;;;;14.77;5.93;;;;;;;;;;5018865;28;20454;-83
2022/02/23 07:05:10;;;;;;;15.03;5.50;;;;;;;;;;5017018;28;21003;-84
2022/02/23 07:07:37;;;;;;;14.20;6.17;;;;;;;;;;5023504;28;20565;-82
2022/02/23 07:10:09;;;;;;;18.43;5.07;;;;;;;;;;5029024;28;20460;-80
2022/02/23 07:12:36;;;;;;;10.40;4.30;;;;;;;;;;5026194;28;20449;-81
2022/02/23 07:15:05;;;;;;;12.53;4.83;;;;;;;;;;5032443;28;20485;-78
2022/02/23 07:17:32;;;;;;;19.80;6.93;;;;;;;;;;5005815;28;20442;-80
2022/02/23 07:20:00;;;;;;;23.20;5.30;;;;;;;;;;5007431;28;20456;-81
2022/02/23 07:22:27;;;;;;;19.13;5.10;;;;;;;;;;5017587;28;20544;-81
2022/02/23 07:24:54;;;;;;;12.90;4.73;;;;;;;;;;5016661;28;20511;-82
2022/02/23 07:27:23;;;;;;;13.73;4.60;;;;;;;;;;5017920;28;20451;-81
2022/02/23 07:29:50;;;;;;;14.10;4.83;;;;;;;;;;5018562;28;20438;-84
2022/02/23 07:32:19;;;;;;;12.67;4.40;;;;;;;;;;5018416;28;20459;-81
2022/02/23 07:34:48;;;;;;;9.17;4.00;;;;;;;;;;5018139;28;20474;-83
2022/02/23 07:37:15;;;;;;;12.87;5.63;;;;;;;;;;5018184;28;20450;-82
2022/02/23 07:39:43;;;;;;;13.60;4.73;;;;;;;;;;5017446;28;20444;-83
2022/02/23 07:42:10;;;;;;;19.97;8.70;;;;;;;;;;5018165;28;20836;-83
2022/02/23 07:44:37;;;;;;;16.97;5.20;;;;;;;;;;5021993;28;21091;-82
2022/02/23 07:47:05;;;;;;;14.70;4.90;;;;;;;;;;5017286;28;21048;-83
2022/02/23 07:49:34;;;;;;;18.73;6.40;;;;;;;;;;5021542;28;20950;-83
2022/02/23 07:52:02;;;;;;;12.93;6.40;;;;;;;;;;5018391;28;20453;-82
2022/02/23 07:54:29;;;;;;;11.80;4.33;;;;;;;;;;5016557;28;20570;-84
2022/02/23 07:56:56;;;;;;;12.00;3.83;;;;;;;;;;5012231;28;20463;-82
2022/02/23 07:59:23;;;;;;;12.40;6.13;;;;;;;;;;5017655;28;20835;-84
2022/02/23 08:01:52;;;;;;;13.90;4.27;;;;;;;;;;5013170;28;20456;-82
2022/02/23 08:04:20;;;;;;;17.10;5.03;;;;;;;;;;5015773;28;20466;-83
2022/02/23 08:06:48;;;;;;;17.90;5.90;;;;;;;;;;5016116;28;20456;-82
2022/02/23 08:09:16;;;;;;;17.90;7.93;;;;;;;;;;5017080;28;20580;-83
2022/02/23 08:11:43;;;;;;;15.33;4.67;;;;;;;;;;5016489;28;20450;-80
2022/02/23 08:14:11;;;;;;;10.27;4.73;;;;;;;;;;5015485;28;20877;-82
2022/02/23 08:19:31;;;;;;;16.00;4.00;;;;;;;;;;5011504;28;20455;-83
2022/02/23 08:22:00;;;;;;;28.80;6.67;;;;;;;;;;5016536;28;20457;-83
2022/02/23 08:24:28;;;;;;;10.40;3.60;;;;;;;;;;5016022;28;20457;-83
2022/02/23 08:26:56;;;;;;;11.60;4.77;;;;;;;;;;5015470;28;20456;-82
2022/02/23 08:29:23;;;;;;;10.97;4.50;;;;;;;;;;5015590;28;20522;-83
2022/02/23 08:31:50;;;;;;;9.60;4.17;;;;;;;;;;5016494;28;20465;-82
2022/02/23 08:34:18;;;;;;;16.70;5.10;;;;;;;;;;5016197;28;20478;-82
2022/02/23 08:36:45;;;;;;;24.47;6.80;;;;;;;;;;5014032;28;20963;-82
2022/02/23 08:39:15;;;;;;;17.07;5.93;;;;;;;;;;5014988;28;20466;-82
2022/02/23 08:41:42;;;;;;;11.93;4.60;;;;;;;;;;5015052;28;20461;-82
2022/02/23 08:44:09;;;;;;;11.73;4.57;;;;;;;;;;5011585;28;20605;-82
2022/02/23 08:46:36;;;;;;;9.40;4.73;;;;;;;;;;5013866;28;20458;-81
2022/02/23 08:49:04;;;;;;;11.50;4.30;;;;;;;;;;5016522;28;20484;-83
2022/02/23 08:51:31;;;;;;;9.83;4.37;;;;;;;;;;5014839;28;20460;-83
2022/02/23 08:53:58;;;;;;;9.90;5.30;;;;;;;;;;5011461;28;20520;-83
2022/02/23 08:56:27;;;;;;;9.07;5.03;;;;;;;;;;5012024;28;20538;-83
2022/02/23 08:58:54;;;;;;;13.53;4.30;;;;;;;;;;5009509;28;20455;-81
2022/02/23 09:01:21;;;;;;;13.87;4.40;;;;;;;;;;5013166;28;20462;-81
2022/02/23 09:03:49;;;;;;;14.10;4.17;;;;;;;;;;5014265;28;20465;-84
2022/02/23 09:06:17;;;;;;;12.57;4.10;;;;;;;;;;5016680;28;20474;-81
2022/02/23 09:08:44;;;;;;;11.50;3.47;;;;;;;;;;5024560;28;20521;-84
2022/02/23 09:11:12;;;;;;;15.37;4.63;;;;;;;;;;5020431;28;20981;-81
2022/02/23 09:13:40;;;;;;;17.17;4.50;;;;;;;;;;5014155;28;20986;-82
2022/02/23 09:16:07;;;;;;;19.73;4.30;;;;;;;;;;5011191;28;20523;-81
2022/02/23 09:18:35;;;;;;;15.10;4.00;;;;;;;;;;5015228;28;20910;-82
2022/02/23 09:21:02;;;;;;;12.17;4.10;;;;;;;;;;5021629;28;20452;-81
2022/02/23 09:23:31;;;;;;;15.33;4.00;;;;;;;;;;5031971;28;20456;-80
2022/02/23 09:25:59;;;;;;;13.20;5.33;;;;;;;;;;5032546;28;20467;-83
2022/02/23 09:28:26;;;;;;;13.23;3.90;;;;;;;;;;5015960;28;20508;-81
2022/02/23 09:30:55;;;;;;;18.00;6.97;;;;;;;;;;5016823;28;20459;-82
2022/02/23 09:33:22;;;;;;;14.37;5.80;;;;;;;;;;5020816;28;20494;-82
2022/02/23 09:35:50;;;;;;;6.00;3.00;;;;;;;;;;5013816;28;20473;-80
2022/02/23 09:38:17;;;;;;;17.10;4.13;;;;;;;;;;5015283;28;20453;-81
2022/02/23 09:40:48;;;;;;;16.93;4.67;;;;;;;;;;5021249;28;20539;-81
2022/02/23 09:43:15;;;;;;;10.23;4.03;;;;;;;;;;5020344;28;20496;-81
2022/02/23 09:45:43;;;;;;;8.83;4.53;;;;;;;;;;5021157;28;20470;-82
2022/02/23 09:48:12;;;;;;;13.10;4.43;;;;;;;;;;5018669;28;20458;-82
2022/02/23 09:50:39;;;;;;;10.90;3.80;;;;;;;;;;5019853;28;21042;-81
2022/02/23 09:53:07;;;;;;;14.87;4.60;;;;;;;;;;5015507;28;20453;-80
2022/02/23 09:55:34;;;;;;;11.17;4.00;;;;;;;;;;5019439;28;20817;-83
2022/02/23 09:58:02;;;;;;;11.70;4.00;;;;;;;;;;5021628;28;21034;-82
2022/02/23 10:00:30;;;;;;;11.17;4.30;;;;;;;;;;5021585;28;20442;-82
2022/02/23 10:03:00;;;;;;;10.70;3.47;;;;;;;;;;5028583;28;20985;-79
2022/02/23 10:05:37;;;;;;;10.63;5.43;;;;;;;;;;5029965;28;20486;-81
2022/02/23 10:08:05;;;;;;;13.13;4.33;;;;;;;;;;5031502;28;20533;-81
2022/02/23 10:10:33;;;;;;;12.07;4.20;;;;;;;;;;5021168;28;20486;-80
2022/02/23 10:13:03;;;;;;;10.60;3.67;;;;;;;;;;5015857;28;20471;-77
2022/02/23 10:15:31;;;;;;;10.73;3.30;;;;;;;;;;5025526;28;20467;-81
2022/02/23 10:18:05;;;;;;;15.67;4.87;;;;;;;;;;5028451;28;20467;-80
2022/02/23 10:20:36;;;;;;;9.77;2.67;;;;;;;;;;5014420;28;20457;-80
2022/02/23 10:23:06;;;;;;;10.13;3.37;;;;;;;;;;5012113;28;20972;-81
2022/02/23 10:25:36;;;;;;;10.53;3.70;;;;;;;;;;5014571;28;20474;-80
2022/02/23 10:28:09;;;;;;;6.70;3.10;;;;;;;;;;5010369;28;20455;-80
2022/02/23 10:30:37;;;;;;;14.17;4.87;;;;;;;;;;5015656;28;20492;-80
2022/02/23 10:33:15;;;;;;;12.67;3.40;;;;;;;;;;5011420;28;20467;-80
2022/02/23 10:35:51;;;;;;;12.53;3.43;;;;;;;;;;5016423;28;20477;-80
2022/02/23 10:38:27;;;;;;;12.70;3.77;;;;;;;;;;5018239;28;20453;-81
2022/02/23 10:40:54;;;;;;;13.30;3.27;;;;;;;;;;5021471;28;20478;-82
2022/02/23 10:43:22;;;;;;;9.10;3.70;;;;;;;;;;5018970;28;20456;-80
2022/02/23 10:45:51;;;;;;;10.07;2.90;;;;;;;;;;5020348;28;20468;-80
2022/02/23 10:48:29;;;;;;;11.63;2.97;;;;;;;;;;5021090;28;20544;-83
2022/02/23 10:50:58;;;;;;;14.30;4.53;;;;;;;;;;5021229;28;20441;-81
2022/02/23 10:53:28;;;;;;;15.07;5.60;;;;;;;;;;5019502;28;20956;-81
2022/02/23 10:55:56;;;;;;;10.37;4.63;;;;;;;;;;5019541;28;20480;-81
2022/02/23 10:58:25;;;;;;;14.13;4.00;;;;;;;;;;5019541;28;20453;-81
2022/02/23 11:00:54;;;;;;;10.23;3.00;;;;;;;;;;5021677;28;20438;-79
2022/02/23 11:03:22;;;;;;;10.47;3.40;;;;;;;;;;5019847;28;20450;-80
2022/02/23 11:05:50;;;;;;;10.97;3.63;;;;;;;;;;5003702;28;20554;-81
2022/02/23 11:08:19;;;;;;;7.33;3.20;;;;;;;;;;5023582;28;20488;-81
2022/02/23 11:10:48;;;;;;;10.20;3.20;;;;;;;;;;5026738;28;20509;-80
2022/02/23 11:13:16;;;;;;;12.97;3.20;;;;;;;;;;5026107;28;20517;-81
2022/02/23 11:15:44;;;;;;;11.97;3.10;;;;;;;;;;5026356;28;20493;-82
2022/02/23 11:18:13;;;;;;;9.33;4.20;;;;;;;;;;5026816;28;20522;-80
2022/02/23 11:20:41;;;;;;;15.13;4.07;;;;;;;;;;5024767;28;20456;-80
2022/02/23 11:23:08;;;;;;;11.87;3.93;;;;;;;;;;5023831;28;20529;-80
2022/02/23 11:25:38;;;;;;;8.20;3.10;;;;;;;;;;5024740;28;20474;-80
2022/02/23 11:28:09;;;;;;;8.67;3.20;;;;;;;;;;5025331;28;20504;-81
2022/02/23 11:30:37;;;;;;;13.97;2.93;;;;;;;;;;5027772;28;20478;-80
2022/02/23 11:33:05;;;;;;;12.70;4.40;;;;;;;;;;5032785;28;20422;-80
2022/02/23 11:35:38;;;;;;;8.70;3.60;;;;;;;;;;5026309;28;20509;-81
2022/02/23 11:38:05;;;;;;;10.93;3.10;;;;;;;;;;5023336;28;20452;-80
2022/02/23 11:40:32;;;;;;;7.50;3.03;;;;;;;;;;5024556;28;20437;-81
2022/02/23 11:43:23;;;;;;;6.73;2.57;;;;;;;;;;5023151;28;20460;-79
2022/02/23 11:45:55;;;;;;;7.10;2.00;;;;;;;;;;5025426;28;20495;-78
2022/02/23 11:48:41;;;;;;;10.20;2.97;;;;;;;;;;5025267;28;20489;-81
2022/02/23 11:51:08;;;;;;;6.87;2.40;;;;;;;;;;5023994;28;20474;-82
2022/02/23 11:53:39;;;;;;;6.77;2.67;;;;;;;;;;5023788;28;20461;-82
2022/02/23 11:56:13;;;;;;;6.23;2.03;;;;;;;;;;5025305;28;20501;-80
2022/02/23 12:01:29;;;;;;;7.70;2.40;;;;;;;;;;5011028;28;20995;-82
2022/02/23 12:04:13;;;;;;;8.47;2.50;;;;;;;;;;5025123;28;20445;-82
2022/02/23 12:07:04;;;;;;;11.70;3.33;;;;;;;;;;5020265;28;20479;-81
2022/02/23 12:09:48;;;;;;;5.10;1.87;;;;;;;;;;5010270;28;20987;-82
2022/02/23 12:12:31;;;;;;;6.20;2.67;;;;;;;;;;5025566;28;20465;-81
2022/02/23 12:15:02;;;;;;;8.33;2.27;;;;;;;;;;5023646;28;20561;-81
2022/02/23 12:17:49;;;;;;;6.63;2.20;;;;;;;;;;5023378;28;20456;-80
2022/02/23 12:20:35;;;;;;;9.80;2.37;;;;;;;;;;5023669;28;20456;-82
2022/02/23 12:23:02;;;;;;;13.20;8.40;;;;;;;;;;5023355;28;20520;-82
2022/02/23 12:25:46;;;;;;;10.23;3.70;;;;;;;;;;5024790;28;20545;-82
2022/02/23 12:28:13;;;;;;;7.33;1.87;;;;;;;;;;5023081;28;20445;-81
2022/02/23 12:30:53;;;;;;;7.83;2.20;;;;;;;;;;5030753;28;20482;-81
2022/02/23 12:33:20;;;;;;;5.87;2.03;;;;;;;;;;5029385;28;20425;-80
2022/02/23 12:35:48;;;;;;;7.10;2.13;;;;;;;;;;5020075;28;20484;-81
2022/02/23 12:38:15;;;;;;;9.63;2.50;;;;;;;;;;5023692;28;20866;-81
2022/02/23 12:40:43;;;;;;;6.93;1.80;;;;;;;;;;5020590;28;20450;-81
2022/02/23 12:43:11;;;;;;;5.63;1.47;;;;;;;;;;5018078;28;20465;-81
2022/02/23 12:45:48;;;;;;;5.80;1.60;;;;;;;;;;5018748;28;20520;-81
2022/02/23 12:48:15;;;;;;;5.17;2.23;;;;;;;;;;5008341;28;20471;-80
2022/02/23 12:50:42;;;;;;;5.33;2.27;;;;;;;;;;5019473;28;20481;-80
2022/02/23 12:53:09;;;;;;;8.30;2.47;;;;;;;;;;5019995;28;20453;-80
2022/02/23 12:55:37;;;;;;;8.27;3.10;;;;;;;;;;5019854;28;20482;-81
2022/02/23 12:58:06;;;;;;;5.97;2.20;;;;;;;;;;5024092;28;20469;-81
2022/02/23 13:00:34;;;;;;;4.60;1.50;;;;;;;;;;5026345;28;20457;-80
2022/02/23 13:03:08;;;;;;;6.17;1.50;;;;;;;;;;5025709;28;20453;-80
2022/02/23 13:05:37;;;;;;;8.13;2.00;;;;;;;;;;5023622;28;20477;-80
2022/02/23 13:08:08;;;;;;;4.70;1.80;;;;;;;;;;5024141;28;20453;-82
2022/02/23 13:10:35;;;;;;;5.70;1.93;;;;;;;;;;5023668;28;20515;-81
2022/02/23 13:13:02;;;;;;;5.67;2.23;;;;;;;;;;5022702;28;20541;-81
2022/02/23 13:15:30;;;;;;;7.57;2.40;;;;;;;;;;5022812;28;20505;-81
2022/02/23 13:18:07;;;;;;;3.83;1.27;;;;;;;;;;5024323;28;20490;-81
2022/02/23 13:20:35;;;;;;;6.43;1.90;;;;;;;;;;5022628;28;20458;-82
2022/02/23 13:23:02;;;;;;;186.00;165.87;;;;;;;;;;5023190;28;20545;-82
2022/02/23 13:25:29;;;;;;;7.23;3.13;;;;;;;;;;5023141;28;20473;-82
2022/02/23 13:28:01;;;;;;;48.00;42.47;;;;;;;;;;5016408;28;20510;-82
2022/02/23 13:30:29;;;;;;;27.30;24.87;;;;;;;;;;5022615;28;20466;-82
2022/02/23 13:33:00;;;;;;;5.63;2.67;;;;;;;;;;5023002;28;20446;-82
2022/02/23 13:35:27;;;;;;;4.57;2.03;;;;;;;;;;5023507;28;20584;-82
2022/02/23 13:38:04;;;;;;;7.27;1.90;;;;;;;;;;5024643;28;20457;-82
2022/02/23 13:40:35;;;;;;;4.80;1.57;;;;;;;;;;5032155;28;20505;-82
2022/02/23 13:43:04;;;;;;;2.73;1.30;;;;;;;;;;5028674;28;20434;-82
2022/02/23 13:45:35;;;;;;;6.03;1.60;;;;;;;;;;5022549;28;20536;-82
2022/02/23 13:48:03;;;;;;;9.70;1.70;;;;;;;;;;5022221;28;20479;-82
2022/02/23 13:50:31;;;;;;;7.73;2.17;;;;;;;;;;5023667;28;20493;-82
2022/02/23 13:53:03;;;;;;;6.20;1.90;;;;;;;;;;5022551;28;20441;-81
2022/02/23 13:55:30;;;;;;;4.97;1.67;;;;;;;;;;5021015;28;20479;-82
2022/02/23 13:57:59;;;;;;;5.60;1.80;;;;;;;;;;5021489;28;20974;-82
2022/02/23 14:00:28;;;;;;;7.90;4.80;;;;;;;;;;5002041;28;20454;-82
2022/02/23 14:03:05;;;;;;;5.77;1.67;;;;;;;;;;5001678;28;20513;-82
2022/02/23 14:05:32;;;;;;;6.60;1.70;;;;;;;;;;5008414;28;20465;-82
2022/02/23 14:08:02;;;;;;;17.33;12.17;;;;;;;;;;5024994;28;20450;-82
2022/02/23 14:10:30;;;;;;;20.07;13.47;;;;;;;;;;5024803;28;20575;-82
2022/02/23 14:13:00;;;;;;;5.93;2.10;;;;;;;;;;5022638;28;20893;-81
2022/02/23 14:15:27;;;;;;;6.63;2.00;;;;;;;;;;5020607;28;20548;-81
2022/02/23 14:17:54;;;;;;;43.07;36.90;;;;;;;;;;5021522;28;20495;-82
2022/02/23 14:20:22;;;;;;;7.10;2.67;;;;;;;;;;5020621;28;20531;-81
2022/02/23 14:22:57;;;;;;;5.87;1.77;;;;;;;;;;5020620;28;20553;-80
2022/02/23 14:25:26;;;;;;;8.83;4.10;;;;;;;;;;5022080;28;20469;-79
2022/02/23 14:27:56;;;;;;;9.57;4.57;;;;;;;;;;5022000;28;20453;-79
2022/02/23 14:30:25;;;;;;;4.53;2.00;;;;;;;;;;5021345;28;20482;-80
2022/02/23 14:32:52;;;;;;;6.90;3.23;;;;;;;;;;5022434;28;20515;-79
2022/02/23 14:35:22;;;;;;;4.13;1.77;;;;;;;;;;5020917;28;20473;-80
2022/02/23 14:37:50;;;;;;;4.80;1.83;;;;;;;;;;5021674;28;20465;-79
2022/02/23 14:40:18;;;;;;;10.90;2.17;;;;;;;;;;5022015;28;20478;-80
2022/02/23 14:42:47;;;;;;;9.17;2.00;;;;;;;;;;5023847;28;20454;-80
2022/02/23 14:45:16;;;;;;;6.73;1.80;;;;;;;;;;5020929;28;20475;-79
2022/02/23 14:47:49;;;;;;;3.77;1.70;;;;;;;;;;5022632;28;20471;-80
2022/02/23 14:50:16;;;;;;;4.50;1.40;;;;;;;;;;5022142;28;20481;-79